Veere, Netherlands
Current Conditions -  °F | °C
As of 11:55 PM on Tuesday 27 Jan 2015 (Local Time) from EHFS Reporting Station
Overcast Overcast  
Wind Chill: 36°   Ceiling: 3400
Heat Index: 43°   Visibility: 6mi
Dew Point: 41°   Wind: 13mph
Humidity: 93%   Direction: 200°SSW
Pressure: 30.15"   Gusts: NA
Location:  51.55°N, 3.67°E
Report Text: EHFS 272255Z AUTO 20011KT 9000 OVC034/// 06/05 Q1021
Loading
Personal Weather Stations






























Interactive Weather Map New forecast layout! Learn more

10-Day Weather Forecast

Advertisements
Track Severe Weather on mobile